Terminal Aerodrome Forecast
Issued by NWS

Current Version | Previous Version | Text Only | Print | Product List | Glossary On
Versions: 1 2 3 4 5 6 7 8 9 10 11 12 13 14 15 16 17 18 19 20 21 22 23 24 25 26 27 28 29
000 FTUS41 KBOX 201120 TAFACK TAF KACK 201120Z 2012/2112 29015G22KT P6SM FEW080 FM201500 29022G31KT P6SM SCT045 FM201700 28020G32KT P6SM BKN040 FM210300 28016G27KT P6SM BKN060 FM210600 27016G24KT P6SM FEW150=

USA.gov is the U.S. government's official web portal to all federal, state and local government web resources and services.